sensor_id;sensor_type;location;lat;lon;timestamp;temperature;humidity
46676;DHT22;32412;51.478;5.694;2022-11-18T00:01:24;8.00;99.90
46676;DHT22;32412;51.478;5.694;2022-11-18T00:03:50;8.00;99.90
46676;DHT22;32412;51.478;5.694;2022-11-18T00:06:21;8.00;99.90
46676;DHT22;32412;51.478;5.694;2022-11-18T00:08:47;7.90;99.90
46676;DHT22;32412;51.478;5.694;2022-11-18T00:11:15;7.90;99.90
46676;DHT22;32412;51.478;5.694;2022-11-18T00:14:02;7.90;99.90
46676;DHT22;32412;51.478;5.694;2022-11-18T00:16:50;7.90;99.90
46676;DHT22;32412;51.478;5.694;2022-11-18T00:19:17;8.00;99.90
46676;DHT22;32412;51.478;5.694;2022-11-18T00:21:43;8.00;99.90
46676;DHT22;32412;51.478;5.694;2022-11-18T00:24:09;8.10;99.90
46676;DHT22;32412;51.478;5.694;2022-11-18T00:26:34;8.10;99.90
46676;DHT22;32412;51.478;5.694;2022-11-18T00:29:01;8.20;99.90
46676;DHT22;32412;51.478;5.694;2022-11-18T00:31:27;8.30;99.90
46676;DHT22;32412;51.478;5.694;2022-11-18T00:33:53;8.40;99.90
46676;DHT22;32412;51.478;5.694;2022-11-18T00:36:18;8.40;99.90
46676;DHT22;32412;51.478;5.694;2022-11-18T00:38:44;8.50;99.90
46676;DHT22;32412;51.478;5.694;2022-11-18T00:41:12;8.50;99.90
46676;DHT22;32412;51.478;5.694;2022-11-18T00:43:39;8.60;99.90
46676;DHT22;32412;51.478;5.694;2022-11-18T00:46:07;8.70;99.90
46676;DHT22;32412;51.478;5.694;2022-11-18T00:48:33;8.70;99.90
46676;DHT22;32412;51.478;5.694;2022-11-18T00:51:15;8.80;99.90
46676;DHT22;32412;51.478;5.694;2022-11-18T00:53:42;8.80;99.90
46676;DHT22;32412;51.478;5.694;2022-11-18T00:56:08;8.90;99.90
46676;DHT22;32412;51.478;5.694;2022-11-18T00:58:34;8.90;99.90
46676;DHT22;32412;51.478;5.694;2022-11-18T01:01:00;8.90;99.90
46676;DHT22;32412;51.478;5.694;2022-11-18T01:03:27;9.00;99.90
46676;DHT22;32412;51.478;5.694;2022-11-18T01:05:53;9.00;99.90
46676;DHT22;32412;51.478;5.694;2022-11-18T01:08:19;9.10;99.90
46676;DHT22;32412;51.478;5.694;2022-11-18T01:10:46;9.10;99.90
46676;DHT22;32412;51.478;5.694;2022-11-18T01:13:15;9.10;99.90
46676;DHT22;32412;51.478;5.694;2022-11-18T01:18:17;9.10;99.90
46676;DHT22;32412;51.478;5.694;2022-11-18T01:20:44;9.20;99.90
46676;DHT22;32412;51.478;5.694;2022-11-18T01:23:10;9.10;99.90
46676;DHT22;32412;51.478;5.694;2022-11-18T01:25:37;9.20;99.90
46676;DHT22;32412;51.478;5.694;2022-11-18T01:28:03;9.10;99.90
46676;DHT22;32412;51.478;5.694;2022-11-18T01:30:32;9.20;99.90
46676;DHT22;32412;51.478;5.694;2022-11-18T01:32:58;9.20;99.90
46676;DHT22;32412;51.478;5.694;2022-11-18T01:35:24;9.20;99.90
46676;DHT22;32412;51.478;5.694;2022-11-18T01:37:49;9.20;99.90
46676;DHT22;32412;51.478;5.694;2022-11-18T01:40:15;9.20;99.90
46676;DHT22;32412;51.478;5.694;2022-11-18T01:42:41;9.20;99.90
46676;DHT22;32412;51.478;5.694;2022-11-18T01:45:31;9.30;99.90
46676;DHT22;32412;51.478;5.694;2022-11-18T01:48:15;9.20;99.90
46676;DHT22;32412;51.478;5.694;2022-11-18T01:50:48;9.20;99.90
46676;DHT22;32412;51.478;5.694;2022-11-18T01:53:20;9.20;99.90
46676;DHT22;32412;51.478;5.694;2022-11-18T01:55:49;9.30;99.90
46676;DHT22;32412;51.478;5.694;2022-11-18T01:58:34;9.20;99.90
46676;DHT22;32412;51.478;5.694;2022-11-18T02:01:04;9.20;99.90
46676;DHT22;32412;51.478;5.694;2022-11-18T02:03:31;9.20;99.90
46676;DHT22;32412;51.478;5.694;2022-11-18T02:05:59;9.20;99.90
46676;DHT22;32412;51.478;5.694;2022-11-18T02:08:25;9.20;99.90
46676;DHT22;32412;51.478;5.694;2022-11-18T02:10:51;9.20;99.90
46676;DHT22;32412;51.478;5.694;2022-11-18T02:13:17;9.20;99.90
46676;DHT22;32412;51.478;5.694;2022-11-18T02:18:53;9.30;99.90
46676;DHT22;32412;51.478;5.694;2022-11-18T02:29:58;9.20;99.90
46676;DHT22;32412;51.478;5.694;2022-11-18T02:32:55;9.20;99.90
46676;DHT22;32412;51.478;5.694;2022-11-18T02:41:09;9.20;99.90
46676;DHT22;32412;51.478;5.694;2022-11-18T02:43:40;9.20;99.90
46676;DHT22;32412;51.478;5.694;2022-11-18T02:46:11;9.20;99.90
46676;DHT22;32412;51.478;5.694;2022-11-18T02:48:42;9.30;99.90
46676;DHT22;32412;51.478;5.694;2022-11-18T02:51:10;9.30;99.90
46676;DHT22;32412;51.478;5.694;2022-11-18T02:53:38;9.30;99.90
46676;DHT22;32412;51.478;5.694;2022-11-18T02:56:09;9.30;99.90
46676;DHT22;32412;51.478;5.694;2022-11-18T02:58:35;9.30;99.90
46676;DHT22;32412;51.478;5.694;2022-11-18T03:01:01;9.30;99.90
46676;DHT22;32412;51.478;5.694;2022-11-18T03:06:35;9.30;99.90
46676;DHT22;32412;51.478;5.694;2022-11-18T03:09:27;9.30;99.90
46676;DHT22;32412;51.478;5.694;2022-11-18T03:17:47;9.40;99.90
46676;DHT22;32412;51.478;5.694;2022-11-18T03:20:37;9.40;99.90
46676;DHT22;32412;51.478;5.694;2022-11-18T03:33:27;9.30;99.90
46676;DHT22;32412;51.478;5.694;2022-11-18T03:35:55;9.30;99.90
46676;DHT22;32412;51.478;5.694;2022-11-18T03:38:29;9.30;99.90
46676;DHT22;32412;51.478;5.694;2022-11-18T03:40:59;9.30;99.90
46676;DHT22;32412;51.478;5.694;2022-11-18T03:43:30;9.30;99.90
46676;DHT22;32412;51.478;5.694;2022-11-18T03:46:22;9.30;99.90
46676;DHT22;32412;51.478;5.694;2022-11-18T03:48:54;9.30;99.90
46676;DHT22;32412;51.478;5.694;2022-11-18T03:51:30;9.30;99.90
46676;DHT22;32412;51.478;5.694;2022-11-18T03:54:06;9.30;99.90
46676;DHT22;32412;51.478;5.694;2022-11-18T03:56:37;9.20;99.90
46676;DHT22;32412;51.478;5.694;2022-11-18T03:59:33;9.20;99.90
46676;DHT22;32412;51.478;5.694;2022-11-18T04:02:41;9.10;99.90
46676;DHT22;32412;51.478;5.694;2022-11-18T04:05:01;9.00;99.90
46676;DHT22;32412;51.478;5.694;2022-11-18T04:10:20;8.90;99.90
46676;DHT22;32412;51.478;5.694;2022-11-18T04:15:25;8.90;99.90
46676;DHT22;32412;51.478;5.694;2022-11-18T04:17:50;8.90;99.90
46676;DHT22;32412;51.478;5.694;2022-11-18T04:20:19;8.90;99.90
46676;DHT22;32412;51.478;5.694;2022-11-18T04:22:46;8.90;99.90
46676;DHT22;32412;51.478;5.694;2022-11-18T04:25:11;8.90;99.90
46676;DHT22;32412;51.478;5.694;2022-11-18T04:27:38;8.80;99.90
46676;DHT22;32412;51.478;5.694;2022-11-18T04:30:05;8.90;99.90
46676;DHT22;32412;51.478;5.694;2022-11-18T04:32:31;8.90;99.90
46676;DHT22;32412;51.478;5.694;2022-11-18T04:34:57;8.80;99.90
46676;DHT22;32412;51.478;5.694;2022-11-18T04:37:23;8.80;99.90
46676;DHT22;32412;51.478;5.694;2022-11-18T04:39:49;8.80;99.90
46676;DHT22;32412;51.478;5.694;2022-11-18T04:42:15;8.80;99.90
46676;DHT22;32412;51.478;5.694;2022-11-18T04:44:40;8.70;99.90
46676;DHT22;32412;51.478;5.694;2022-11-18T04:47:06;8.70;99.90
46676;DHT22;32412;51.478;5.694;2022-11-18T04:49:33;8.70;99.90
46676;DHT22;32412;51.478;5.694;2022-11-18T04:52:00;8.60;99.90
46676;DHT22;32412;51.478;5.694;2022-11-18T04:54:27;8.70;99.90
46676;DHT22;32412;51.478;5.694;2022-11-18T04:56:56;8.60;99.90
46676;DHT22;32412;51.478;5.694;2022-11-18T04:59:26;8.60;99.90
46676;DHT22;32412;51.478;5.694;2022-11-18T05:01:53;8.60;99.90
46676;DHT22;32412;51.478;5.694;2022-11-18T05:04:22;8.50;99.90
46676;DHT22;32412;51.478;5.694;2022-11-18T05:06:50;8.50;99.90
46676;DHT22;32412;51.478;5.694;2022-11-18T05:09:16;8.50;99.90
46676;DHT22;32412;51.478;5.694;2022-11-18T05:11:42;8.50;99.90
46676;DHT22;32412;51.478;5.694;2022-11-18T05:14:28;8.50;99.90
46676;DHT22;32412;51.478;5.694;2022-11-18T05:16:55;8.50;99.90
46676;DHT22;32412;51.478;5.694;2022-11-18T05:19:21;8.50;99.90
46676;DHT22;32412;51.478;5.694;2022-11-18T05:21:50;8.50;99.90
46676;DHT22;32412;51.478;5.694;2022-11-18T05:24:15;8.50;99.90
46676;DHT22;32412;51.478;5.694;2022-11-18T05:26:41;8.50;99.90
46676;DHT22;32412;51.478;5.694;2022-11-18T05:29:07;8.40;99.90
46676;DHT22;32412;51.478;5.694;2022-11-18T05:31:33;8.40;99.90
46676;DHT22;32412;51.478;5.694;2022-11-18T05:33:59;8.30;99.90
46676;DHT22;32412;51.478;5.694;2022-11-18T05:36:25;8.20;99.90
46676;DHT22;32412;51.478;5.694;2022-11-18T05:38:51;8.20;99.90
46676;DHT22;32412;51.478;5.694;2022-11-18T05:41:17;8.10;99.90
46676;DHT22;32412;51.478;5.694;2022-11-18T05:44:02;8.00;99.90
46676;DHT22;32412;51.478;5.694;2022-11-18T05:46:28;7.90;99.90
46676;DHT22;32412;51.478;5.694;2022-11-18T05:48:54;7.90;99.90
46676;DHT22;32412;51.478;5.694;2022-11-18T05:51:20;7.80;99.90
46676;DHT22;32412;51.478;5.694;2022-11-18T05:53:50;7.70;99.90
46676;DHT22;32412;51.478;5.694;2022-11-18T05:56:29;7.60;99.90
46676;DHT22;32412;51.478;5.694;2022-11-18T05:58:57;7.60;99.90
46676;DHT22;32412;51.478;5.694;2022-11-18T06:03:57;7.50;99.90
46676;DHT22;32412;51.478;5.694;2022-11-18T06:06:23;7.50;99.90
46676;DHT22;32412;51.478;5.694;2022-11-18T06:09:01;7.50;99.90
46676;DHT22;32412;51.478;5.694;2022-11-18T06:11:30;7.50;99.90
46676;DHT22;32412;51.478;5.694;2022-11-18T06:14:03;7.50;99.90
46676;DHT22;32412;51.478;5.694;2022-11-18T06:16:31;7.50;99.90
46676;DHT22;32412;51.478;5.694;2022-11-18T06:18:59;7.50;99.90
46676;DHT22;32412;51.478;5.694;2022-11-18T06:21:26;7.40;99.90
46676;DHT22;32412;51.478;5.694;2022-11-18T06:23:52;7.40;99.90
46676;DHT22;32412;51.478;5.694;2022-11-18T06:26:18;7.30;99.90
46676;DHT22;32412;51.478;5.694;2022-11-18T06:28:46;7.30;99.90
46676;DHT22;32412;51.478;5.694;2022-11-18T06:31:12;7.30;99.90
46676;DHT22;32412;51.478;5.694;2022-11-18T06:33:40;7.30;99.90
46676;DHT22;32412;51.478;5.694;2022-11-18T06:36:06;7.30;99.90
46676;DHT22;32412;51.478;5.694;2022-11-18T06:38:32;7.30;99.90
46676;DHT22;32412;51.478;5.694;2022-11-18T06:41:01;7.20;99.90
46676;DHT22;32412;51.478;5.694;2022-11-18T06:43:27;7.30;99.90
46676;DHT22;32412;51.478;5.694;2022-11-18T06:46:13;7.20;99.90
46676;DHT22;32412;51.478;5.694;2022-11-18T06:48:58;7.20;99.90
46676;DHT22;32412;51.478;5.694;2022-11-18T06:51:25;7.20;99.90
46676;DHT22;32412;51.478;5.694;2022-11-18T06:53:53;7.20;99.90
46676;DHT22;32412;51.478;5.694;2022-11-18T06:56:20;7.20;99.90
46676;DHT22;32412;51.478;5.694;2022-11-18T06:58:47;7.20;99.90
46676;DHT22;32412;51.478;5.694;2022-11-18T07:01:17;7.20;99.90
46676;DHT22;32412;51.478;5.694;2022-11-18T07:03:45;7.20;99.90
46676;DHT22;32412;51.478;5.694;2022-11-18T07:06:12;7.20;99.90
46676;DHT22;32412;51.478;5.694;2022-11-18T07:08:42;7.20;99.90
46676;DHT22;32412;51.478;5.694;2022-11-18T07:11:13;7.10;99.90
46676;DHT22;32412;51.478;5.694;2022-11-18T07:13:42;7.10;99.90
46676;DHT22;32412;51.478;5.694;2022-11-18T07:16:12;7.10;99.90
46676;DHT22;32412;51.478;5.694;2022-11-18T07:18:40;7.10;99.90
46676;DHT22;32412;51.478;5.694;2022-11-18T07:21:27;7.00;99.90
46676;DHT22;32412;51.478;5.694;2022-11-18T07:23:55;7.10;99.90
46676;DHT22;32412;51.478;5.694;2022-11-18T07:26:31;7.10;99.90
46676;DHT22;32412;51.478;5.694;2022-11-18T07:28:57;7.10;99.90
46676;DHT22;32412;51.478;5.694;2022-11-18T07:31:22;7.10;99.90
46676;DHT22;32412;51.478;5.694;2022-11-18T07:33:49;7.00;99.90
46676;DHT22;32412;51.478;5.694;2022-11-18T07:36:18;7.10;99.90
46676;DHT22;32412;51.478;5.694;2022-11-18T07:38:45;7.20;99.90
46676;DHT22;32412;51.478;5.694;2022-11-18T07:41:23;7.20;99.90
46676;DHT22;32412;51.478;5.694;2022-11-18T07:43:51;7.30;99.90
46676;DHT22;32412;51.478;5.694;2022-11-18T07:46:22;7.30;99.90
46676;DHT22;32412;51.478;5.694;2022-11-18T07:48:50;7.40;99.90
46676;DHT22;32412;51.478;5.694;2022-11-18T07:51:18;7.50;99.90
46676;DHT22;32412;51.478;5.694;2022-11-18T07:53:45;7.50;99.90
46676;DHT22;32412;51.478;5.694;2022-11-18T07:56:11;7.60;99.90
46676;DHT22;32412;51.478;5.694;2022-11-18T07:58:37;7.60;99.90
46676;DHT22;32412;51.478;5.694;2022-11-18T08:01:12;7.70;99.90
46676;DHT22;32412;51.478;5.694;2022-11-18T08:03:39;7.70;99.90
46676;DHT22;32412;51.478;5.694;2022-11-18T08:06:06;7.70;99.90
46676;DHT22;32412;51.478;5.694;2022-11-18T08:08:32;7.80;99.90
46676;DHT22;32412;51.478;5.694;2022-11-18T08:11:00;7.80;99.90
46676;DHT22;32412;51.478;5.694;2022-11-18T08:13:36;7.80;99.90
46676;DHT22;32412;51.478;5.694;2022-11-18T08:16:03;7.90;99.90
46676;DHT22;32412;51.478;5.694;2022-11-18T08:18:31;8.00;99.90
46676;DHT22;32412;51.478;5.694;2022-11-18T08:21:03;8.00;99.90
46676;DHT22;32412;51.478;5.694;2022-11-18T08:23:29;8.10;99.90
46676;DHT22;32412;51.478;5.694;2022-11-18T08:26:08;8.20;99.90
46676;DHT22;32412;51.478;5.694;2022-11-18T08:28:34;8.30;99.90
46676;DHT22;32412;51.478;5.694;2022-11-18T08:31:23;8.50;99.90
46676;DHT22;32412;51.478;5.694;2022-11-18T08:33:54;8.60;99.90
46676;DHT22;32412;51.478;5.694;2022-11-18T08:36:21;8.60;99.90
46676;DHT22;32412;51.478;5.694;2022-11-18T08:38:49;8.80;99.90
46676;DHT22;32412;51.478;5.694;2022-11-18T08:41:24;9.10;99.90
46676;DHT22;32412;51.478;5.694;2022-11-18T08:43:51;9.20;99.90
46676;DHT22;32412;51.478;5.694;2022-11-18T08:46:17;9.30;99.90
46676;DHT22;32412;51.478;5.694;2022-11-18T08:48:44;9.30;99.90
46676;DHT22;32412;51.478;5.694;2022-11-18T08:51:10;9.30;99.90
46676;DHT22;32412;51.478;5.694;2022-11-18T08:53:37;9.30;99.90
46676;DHT22;32412;51.478;5.694;2022-11-18T08:56:03;9.40;99.90
46676;DHT22;32412;51.478;5.694;2022-11-18T08:58:31;9.40;99.90
46676;DHT22;32412;51.478;5.694;2022-11-18T09:00:57;9.30;99.90
46676;DHT22;32412;51.478;5.694;2022-11-18T09:03:22;9.30;99.90
46676;DHT22;32412;51.478;5.694;2022-11-18T09:05:48;9.30;99.90
46676;DHT22;32412;51.478;5.694;2022-11-18T09:08:14;9.40;99.90
46676;DHT22;32412;51.478;5.694;2022-11-18T09:10:49;9.70;99.90
46676;DHT22;32412;51.478;5.694;2022-11-18T09:13:15;10.00;99.90
46676;DHT22;32412;51.478;5.694;2022-11-18T09:15:40;10.40;99.90
46676;DHT22;32412;51.478;5.694;2022-11-18T09:18:07;10.90;99.90
46676;DHT22;32412;51.478;5.694;2022-11-18T09:20:33;11.50;99.90
46676;DHT22;32412;51.478;5.694;2022-11-18T09:22:59;11.90;99.90
46676;DHT22;32412;51.478;5.694;2022-11-18T09:25:25;11.80;99.90
46676;DHT22;32412;51.478;5.694;2022-11-18T09:27:50;11.50;99.90
46676;DHT22;32412;51.478;5.694;2022-11-18T09:30:17;11.50;99.90
46676;DHT22;32412;51.478;5.694;2022-11-18T09:32:45;12.00;99.90
46676;DHT22;32412;51.478;5.694;2022-11-18T09:35:10;13.10;99.90
46676;DHT22;32412;51.478;5.694;2022-11-18T09:37:36;14.40;99.90
46676;DHT22;32412;51.478;5.694;2022-11-18T09:40:05;15.10;99.90
46676;DHT22;32412;51.478;5.694;2022-11-18T09:42:56;15.70;99.90
46676;DHT22;32412;51.478;5.694;2022-11-18T09:45:55;16.20;99.90
46676;DHT22;32412;51.478;5.694;2022-11-18T09:48:24;16.20;99.90
46676;DHT22;32412;51.478;5.694;2022-11-18T09:51:11;16.50;99.90
46676;DHT22;32412;51.478;5.694;2022-11-18T09:53:40;16.50;99.90
46676;DHT22;32412;51.478;5.694;2022-11-18T09:56:14;16.00;99.90
46676;DHT22;32412;51.478;5.694;2022-11-18T09:58:40;15.80;99.90
46676;DHT22;32412;51.478;5.694;2022-11-18T10:01:16;16.00;99.90
46676;DHT22;32412;51.478;5.694;2022-11-18T10:03:42;16.50;99.90
46676;DHT22;32412;51.478;5.694;2022-11-18T10:11:27;16.10;99.90
46676;DHT22;32412;51.478;5.694;2022-11-18T10:19:19;16.50;99.90
46676;DHT22;32412;51.478;5.694;2022-11-18T10:24:29;16.00;99.90
46676;DHT22;32412;51.478;5.694;2022-11-18T10:26:59;15.20;99.90
46676;DHT22;32412;51.478;5.694;2022-11-18T10:29:25;14.50;99.90
46676;DHT22;32412;51.478;5.694;2022-11-18T10:32:01;13.60;99.90
46676;DHT22;32412;51.478;5.694;2022-11-18T10:34:29;13.20;99.90
46676;DHT22;32412;51.478;5.694;2022-11-18T10:39:26;14.60;99.90
46676;DHT22;32412;51.478;5.694;2022-11-18T10:41:56;15.70;99.90
46676;DHT22;32412;51.478;5.694;2022-11-18T10:44:38;16.70;99.90
46676;DHT22;32412;51.478;5.694;2022-11-18T10:47:27;16.70;99.90
46676;DHT22;32412;51.478;5.694;2022-11-18T10:49:55;16.80;99.90
46676;DHT22;32412;51.478;5.694;2022-11-18T10:52:22;16.40;99.90
46676;DHT22;32412;51.478;5.694;2022-11-18T10:57:42;16.60;99.90
46676;DHT22;32412;51.478;5.694;2022-11-18T11:00:37;16.50;99.90
46676;DHT22;32412;51.478;5.694;2022-11-18T11:09:03;15.30;99.90
46676;DHT22;32412;51.478;5.694;2022-11-18T11:14:04;13.00;99.90
46676;DHT22;32412;51.478;5.694;2022-11-18T11:16:38;12.50;99.90
46676;DHT22;32412;51.478;5.694;2022-11-18T11:19:08;12.30;99.90
46676;DHT22;32412;51.478;5.694;2022-11-18T11:21:36;12.10;99.90
46676;DHT22;32412;51.478;5.694;2022-11-18T11:24:07;12.00;99.90
46676;DHT22;32412;51.478;5.694;2022-11-18T11:26:55;11.80;99.90
46676;DHT22;32412;51.478;5.694;2022-11-18T11:30:02;11.70;99.90
46676;DHT22;32412;51.478;5.694;2022-11-18T11:46:54;11.60;99.90
46676;DHT22;32412;51.478;5.694;2022-11-18T11:49:57;11.60;99.90
46676;DHT22;32412;51.478;5.694;2022-11-18T11:52:45;11.60;99.90
46676;DHT22;32412;51.478;5.694;2022-11-18T11:55:44;11.70;99.90
46676;DHT22;32412;51.478;5.694;2022-11-18T12:06:52;11.70;99.90
46676;DHT22;32412;51.478;5.694;2022-11-18T12:12:09;11.70;99.90
46676;DHT22;32412;51.478;5.694;2022-11-18T12:20:53;11.60;99.90
46676;DHT22;32412;51.478;5.694;2022-11-18T12:23:30;11.70;99.90
46676;DHT22;32412;51.478;5.694;2022-11-18T12:26:06;11.70;99.90
46676;DHT22;32412;51.478;5.694;2022-11-18T12:28:42;11.70;99.90
46676;DHT22;32412;51.478;5.694;2022-11-18T12:34:03;11.70;99.90
46676;DHT22;32412;51.478;5.694;2022-11-18T12:36:36;11.70;99.90
46676;DHT22;32412;51.478;5.694;2022-11-18T12:41:58;12.20;99.90
46676;DHT22;32412;51.478;5.694;2022-11-18T12:44:48;12.30;99.90
46676;DHT22;32412;51.478;5.694;2022-11-18T12:54:58;13.40;99.90
46676;DHT22;32412;51.478;5.694;2022-11-18T12:57:30;13.10;99.90
46676;DHT22;32412;51.478;5.694;2022-11-18T12:59:56;12.90;99.90
46676;DHT22;32412;51.478;5.694;2022-11-18T13:05:25;12.50;99.90
46676;DHT22;32412;51.478;5.694;2022-11-18T13:08:00;12.30;99.90
46676;DHT22;32412;51.478;5.694;2022-11-18T13:14:01;12.10;99.90
46676;DHT22;32412;51.478;5.694;2022-11-18T13:16:47;12.00;99.90
46676;DHT22;32412;51.478;5.694;2022-11-18T13:19:31;12.00;99.90
46676;DHT22;32412;51.478;5.694;2022-11-18T13:21:58;11.90;99.90
46676;DHT22;32412;51.478;5.694;2022-11-18T13:24:52;11.90;99.90
46676;DHT22;32412;51.478;5.694;2022-11-18T13:30:03;11.70;99.90
46676;DHT22;32412;51.478;5.694;2022-11-18T13:32:29;11.60;99.90
46676;DHT22;32412;51.478;5.694;2022-11-18T13:35:18;11.50;99.90
46676;DHT22;32412;51.478;5.694;2022-11-18T13:37:56;11.40;99.90
46676;DHT22;32412;51.478;5.694;2022-11-18T13:40:30;11.40;99.90
46676;DHT22;32412;51.478;5.694;2022-11-18T13:42:56;11.40;99.90
46676;DHT22;32412;51.478;5.694;2022-11-18T13:45:27;11.30;99.90
46676;DHT22;32412;51.478;5.694;2022-11-18T13:50:39;11.20;99.90
46676;DHT22;32412;51.478;5.694;2022-11-18T13:53:24;11.30;99.90
46676;DHT22;32412;51.478;5.694;2022-11-18T13:56:00;11.40;99.90
46676;DHT22;32412;51.478;5.694;2022-11-18T14:01:21;11.30;99.90
46676;DHT22;32412;51.478;5.694;2022-11-18T14:08:49;11.20;99.90
46676;DHT22;32412;51.478;5.694;2022-11-18T14:14:00;11.10;99.90
46676;DHT22;32412;51.478;5.694;2022-11-18T14:16:32;11.00;99.90
46676;DHT22;32412;51.478;5.694;2022-11-18T14:18:58;11.10;99.90
46676;DHT22;32412;51.478;5.694;2022-11-18T14:21:28;11.10;99.90
46676;DHT22;32412;51.478;5.694;2022-11-18T14:23:55;11.00;99.90
46676;DHT22;32412;51.478;5.694;2022-11-18T14:26:32;10.90;99.90
46676;DHT22;32412;51.478;5.694;2022-11-18T14:29:14;10.80;99.90
46676;DHT22;32412;51.478;5.694;2022-11-18T14:32:01;10.80;99.90
46676;DHT22;32412;51.478;5.694;2022-11-18T14:34:26;10.80;99.90
46676;DHT22;32412;51.478;5.694;2022-11-18T14:36:54;10.70;99.90
46676;DHT22;32412;51.478;5.694;2022-11-18T14:39:25;10.70;99.90
46676;DHT22;32412;51.478;5.694;2022-11-18T14:41:52;10.80;99.90
46676;DHT22;32412;51.478;5.694;2022-11-18T14:44:20;10.70;99.90
46676;DHT22;32412;51.478;5.694;2022-11-18T14:46:51;10.60;99.90
46676;DHT22;32412;51.478;5.694;2022-11-18T14:49:20;10.50;99.90
46676;DHT22;32412;51.478;5.694;2022-11-18T14:51:47;10.30;99.90
46676;DHT22;32412;51.478;5.694;2022-11-18T14:54:14;10.20;99.90
46676;DHT22;32412;51.478;5.694;2022-11-18T14:56:40;10.10;99.90
46676;DHT22;32412;51.478;5.694;2022-11-18T14:59:10;10.10;99.90
46676;DHT22;32412;51.478;5.694;2022-11-18T15:01:35;10.00;99.90
46676;DHT22;32412;51.478;5.694;2022-11-18T15:04:01;10.00;99.90
46676;DHT22;32412;51.478;5.694;2022-11-18T15:06:27;9.90;99.90
46676;DHT22;32412;51.478;5.694;2022-11-18T15:08:52;9.90;99.90
46676;DHT22;32412;51.478;5.694;2022-11-18T15:11:19;9.80;99.90
46676;DHT22;32412;51.478;5.694;2022-11-18T15:13:45;9.70;99.90
46676;DHT22;32412;51.478;5.694;2022-11-18T15:16:15;9.60;99.90
46676;DHT22;32412;51.478;5.694;2022-11-18T15:18:42;9.60;99.90
46676;DHT22;32412;51.478;5.694;2022-11-18T15:21:08;9.60;99.90
46676;DHT22;32412;51.478;5.694;2022-11-18T15:23:34;9.50;99.90
46676;DHT22;32412;51.478;5.694;2022-11-18T15:26:00;9.60;99.90
46676;DHT22;32412;51.478;5.694;2022-11-18T15:28:27;9.50;99.90
46676;DHT22;32412;51.478;5.694;2022-11-18T15:30:52;9.50;99.90
46676;DHT22;32412;51.478;5.694;2022-11-18T15:33:18;9.50;99.90
46676;DHT22;32412;51.478;5.694;2022-11-18T15:35:44;9.50;99.90
46676;DHT22;32412;51.478;5.694;2022-11-18T15:38:10;9.50;99.90
46676;DHT22;32412;51.478;5.694;2022-11-18T15:40:37;9.50;99.90
46676;DHT22;32412;51.478;5.694;2022-11-18T15:43:03;9.50;99.90
46676;DHT22;32412;51.478;5.694;2022-11-18T15:45:29;9.50;99.90
46676;DHT22;32412;51.478;5.694;2022-11-18T15:47:55;9.40;99.90
46676;DHT22;32412;51.478;5.694;2022-11-18T15:50:20;9.40;99.90
46676;DHT22;32412;51.478;5.694;2022-11-18T15:52:46;9.40;99.90
46676;DHT22;32412;51.478;5.694;2022-11-18T15:55:12;9.40;99.90
46676;DHT22;32412;51.478;5.694;2022-11-18T15:57:37;9.40;99.90
46676;DHT22;32412;51.478;5.694;2022-11-18T16:00:04;9.40;99.90
46676;DHT22;32412;51.478;5.694;2022-11-18T16:02:29;9.30;99.90
46676;DHT22;32412;51.478;5.694;2022-11-18T16:04:55;9.30;99.90
46676;DHT22;32412;51.478;5.694;2022-11-18T16:07:21;9.30;99.90
46676;DHT22;32412;51.478;5.694;2022-11-18T16:09:46;9.30;99.90
46676;DHT22;32412;51.478;5.694;2022-11-18T16:12:30;9.30;99.90
46676;DHT22;32412;51.478;5.694;2022-11-18T16:15:17;9.30;99.90
46676;DHT22;32412;51.478;5.694;2022-11-18T16:18:02;9.20;99.90
46676;DHT22;32412;51.478;5.694;2022-11-18T16:20:28;9.20;99.90
46676;DHT22;32412;51.478;5.694;2022-11-18T16:22:57;9.30;99.90
46676;DHT22;32412;51.478;5.694;2022-11-18T16:25:23;9.30;99.90
46676;DHT22;32412;51.478;5.694;2022-11-18T16:27:49;9.30;99.90
46676;DHT22;32412;51.478;5.694;2022-11-18T16:30:14;9.30;99.90
46676;DHT22;32412;51.478;5.694;2022-11-18T16:32:59;9.30;99.90
46676;DHT22;32412;51.478;5.694;2022-11-18T16:35:25;9.30;99.90
46676;DHT22;32412;51.478;5.694;2022-11-18T16:37:52;9.30;99.90
46676;DHT22;32412;51.478;5.694;2022-11-18T16:40:18;9.30;99.90
46676;DHT22;32412;51.478;5.694;2022-11-18T16:42:46;9.30;99.90
46676;DHT22;32412;51.478;5.694;2022-11-18T16:45:12;9.30;99.90
46676;DHT22;32412;51.478;5.694;2022-11-18T16:47:40;9.40;99.90
46676;DHT22;32412;51.478;5.694;2022-11-18T16:50:06;9.30;99.90
46676;DHT22;32412;51.478;5.694;2022-11-18T16:52:32;9.30;99.90
46676;DHT22;32412;51.478;5.694;2022-11-18T16:54:57;9.30;99.90
46676;DHT22;32412;51.478;5.694;2022-11-18T16:57:23;9.20;99.90
46676;DHT22;32412;51.478;5.694;2022-11-18T16:59:49;9.30;99.90
46676;DHT22;32412;51.478;5.694;2022-11-18T17:02:15;9.20;99.90
46676;DHT22;32412;51.478;5.694;2022-11-18T17:04:41;9.30;99.90
46676;DHT22;32412;51.478;5.694;2022-11-18T17:07:10;9.30;99.90
46676;DHT22;32412;51.478;5.694;2022-11-18T17:09:35;9.20;99.90
46676;DHT22;32412;51.478;5.694;2022-11-18T17:12:01;9.20;99.90
46676;DHT22;32412;51.478;5.694;2022-11-18T17:14:28;9.20;99.90
46676;DHT22;32412;51.478;5.694;2022-11-18T17:16:54;9.30;99.90
46676;DHT22;32412;51.478;5.694;2022-11-18T17:19:21;9.30;99.90
46676;DHT22;32412;51.478;5.694;2022-11-18T17:21:48;9.30;99.90
46676;DHT22;32412;51.478;5.694;2022-11-18T17:24:17;9.30;99.90
46676;DHT22;32412;51.478;5.694;2022-11-18T17:26:43;9.20;99.90
46676;DHT22;32412;51.478;5.694;2022-11-18T17:29:10;9.30;99.90
46676;DHT22;32412;51.478;5.694;2022-11-18T17:31:36;9.20;99.90
46676;DHT22;32412;51.478;5.694;2022-11-18T17:34:07;9.20;99.90
46676;DHT22;32412;51.478;5.694;2022-11-18T17:36:33;9.20;99.90
46676;DHT22;32412;51.478;5.694;2022-11-18T17:38:59;9.20;99.90
46676;DHT22;32412;51.478;5.694;2022-11-18T17:41:26;9.20;99.90
46676;DHT22;32412;51.478;5.694;2022-11-18T17:44:13;9.20;99.90
46676;DHT22;32412;51.478;5.694;2022-11-18T17:46:39;9.20;99.90
46676;DHT22;32412;51.478;5.694;2022-11-18T17:49:10;9.20;99.90
46676;DHT22;32412;51.478;5.694;2022-11-18T17:51:37;9.20;99.90
46676;DHT22;32412;51.478;5.694;2022-11-18T17:54:05;9.10;99.90
46676;DHT22;32412;51.478;5.694;2022-11-18T17:56:30;9.20;99.90
46676;DHT22;32412;51.478;5.694;2022-11-18T17:58:56;9.20;99.90
46676;DHT22;32412;51.478;5.694;2022-11-18T18:01:22;9.20;99.90
46676;DHT22;32412;51.478;5.694;2022-11-18T18:03:48;9.20;99.90
46676;DHT22;32412;51.478;5.694;2022-11-18T18:06:14;9.20;99.90
46676;DHT22;32412;51.478;5.694;2022-11-18T18:08:40;9.20;99.90
46676;DHT22;32412;51.478;5.694;2022-11-18T18:11:09;9.20;99.90
46676;DHT22;32412;51.478;5.694;2022-11-18T18:13:39;9.20;99.90
46676;DHT22;32412;51.478;5.694;2022-11-18T18:16:25;9.30;99.90
46676;DHT22;32412;51.478;5.694;2022-11-18T18:18:51;9.20;99.90
46676;DHT22;32412;51.478;5.694;2022-11-18T18:21:16;9.20;99.90
46676;DHT22;32412;51.478;5.694;2022-11-18T18:23:42;9.10;99.90